sensor_id;sensor_type;location;lat;lon;timestamp;pressure;altitude;pressure_sealevel;temperature;humidity
19811;BME280;10065;49.632;8.346;2023-02-19T00:01:46;101112.91;;;12.41;70.66
19811;BME280;10065;49.632;8.346;2023-02-19T00:04:15;101121.06;;;12.40;70.72
19811;BME280;10065;49.632;8.346;2023-02-19T00:06:44;101111.41;;;12.39;71.43
19811;BME280;10065;49.632;8.346;2023-02-19T00:09:13;101108.59;;;12.40;71.11
19811;BME280;10065;49.632;8.346;2023-02-19T00:11:43;101113.63;;;12.43;70.80
19811;BME280;10065;49.632;8.346;2023-02-19T00:14:14;101109.59;;;12.39;70.93
19811;BME280;10065;49.632;8.346;2023-02-19T00:16:42;101115.59;;;12.41;71.06
19811;BME280;10065;49.632;8.346;2023-02-19T00:19:11;101115.91;;;12.38;71.27
19811;BME280;10065;49.632;8.346;2023-02-19T00:21:40;101119.94;;;12.42;71.35
19811;BME280;10065;49.632;8.346;2023-02-19T00:24:10;101111.81;;;12.44;71.07
19811;BME280;10065;49.632;8.346;2023-02-19T00:26:39;101115.59;;;12.41;71.11
19811;BME280;10065;49.632;8.346;2023-02-19T00:29:11;101120.38;;;12.38;71.46
19811;BME280;10065;49.632;8.346;2023-02-19T00:31:39;101123.16;;;12.36;71.07
19811;BME280;10065;49.632;8.346;2023-02-19T00:34:08;101110.03;;;12.25;71.71
19811;BME280;10065;49.632;8.346;2023-02-19T00:36:38;101105.41;;;12.27;71.67
19811;BME280;10065;49.632;8.346;2023-02-19T00:39:07;101099.25;;;12.27;71.67
19811;BME280;10065;49.632;8.346;2023-02-19T00:41:36;101100.38;;;12.24;71.96
19811;BME280;10065;49.632;8.346;2023-02-19T00:44:05;101095.63;;;12.28;71.93
19811;BME280;10065;49.632;8.346;2023-02-19T00:46:37;101109.06;;;12.26;72.04
19811;BME280;10065;49.632;8.346;2023-02-19T00:49:06;101101.22;;;12.25;72.05
19811;BME280;10065;49.632;8.346;2023-02-19T00:51:36;101106.84;;;12.22;72.47
19811;BME280;10065;49.632;8.346;2023-02-19T00:54:05;101109.63;;;12.20;72.69
19811;BME280;10065;49.632;8.346;2023-02-19T00:56:33;101104.44;;;12.19;72.81
19811;BME280;10065;49.632;8.346;2023-02-19T00:59:01;101103.72;;;12.26;72.35
19811;BME280;10065;49.632;8.346;2023-02-19T01:01:29;101121.94;;;12.21;72.57
19811;BME280;10065;49.632;8.346;2023-02-19T01:03:59;101120.53;;;12.17;72.74
19811;BME280;10065;49.632;8.346;2023-02-19T01:06:27;101122.38;;;12.17;72.90
19811;BME280;10065;49.632;8.346;2023-02-19T01:08:56;101127.53;;;12.18;73.03
19811;BME280;10065;49.632;8.346;2023-02-19T01:11:24;101109.31;;;12.23;72.57
19811;BME280;10065;49.632;8.346;2023-02-19T01:13:56;101106.38;;;12.26;72.74
19811;BME280;10065;49.632;8.346;2023-02-19T01:16:24;101095.38;;;12.21;73.02
19811;BME280;10065;49.632;8.346;2023-02-19T01:18:53;101094.66;;;12.19;73.18
19811;BME280;10065;49.632;8.346;2023-02-19T01:21:26;101102.63;;;12.19;73.11
19811;BME280;10065;49.632;8.346;2023-02-19T01:23:55;101084.72;;;12.21;73.32
19811;BME280;10065;49.632;8.346;2023-02-19T01:26:26;101098.41;;;12.26;72.99
19811;BME280;10065;49.632;8.346;2023-02-19T01:28:54;101101.22;;;12.25;73.34
19811;BME280;10065;49.632;8.346;2023-02-19T01:31:23;101098.13;;;12.29;73.29
19811;BME280;10065;49.632;8.346;2023-02-19T01:33:52;101105.56;;;12.26;73.64
19811;BME280;10065;49.632;8.346;2023-02-19T01:36:21;101095.63;;;12.28;73.60
19811;BME280;10065;49.632;8.346;2023-02-19T01:38:50;101093.09;;;12.26;74.14
19811;BME280;10065;49.632;8.346;2023-02-19T01:41:20;101078.81;;;12.27;74.25
19811;BME280;10065;49.632;8.346;2023-02-19T01:43:55;101070.72;;;12.29;74.33
19811;BME280;10065;49.632;8.346;2023-02-19T01:46:24;101064.13;;;12.23;74.70
19811;BME280;10065;49.632;8.346;2023-02-19T01:48:53;101066.78;;;12.23;74.94
19811;BME280;10065;49.632;8.346;2023-02-19T01:51:21;101081.63;;;12.16;75.50
19811;BME280;10065;49.632;8.346;2023-02-19T01:53:54;101079.13;;;12.15;75.48
19811;BME280;10065;49.632;8.346;2023-02-19T01:56:23;101080.38;;;12.20;75.45
19811;BME280;10065;49.632;8.346;2023-02-19T01:58:52;101071.59;;;12.10;76.05
19811;BME280;10065;49.632;8.346;2023-02-19T02:01:20;101064.44;;;12.11;76.13
19811;BME280;10065;49.632;8.346;2023-02-19T02:03:48;101065.16;;;12.13;76.02
19811;BME280;10065;49.632;8.346;2023-02-19T02:06:20;101067.13;;;12.11;75.91
19811;BME280;10065;49.632;8.346;2023-02-19T02:08:54;101063.19;;;12.05;76.38
19811;BME280;10065;49.632;8.346;2023-02-19T02:11:41;101059.56;;;12.06;76.23
19811;BME280;10065;49.632;8.346;2023-02-19T02:14:11;101045.00;;;12.10;75.97
19811;BME280;10065;49.632;8.346;2023-02-19T02:16:48;101058.28;;;12.10;75.93
19811;BME280;10065;49.632;8.346;2023-02-19T02:19:42;101063.19;;;12.05;76.03
19811;BME280;10065;49.632;8.346;2023-02-19T02:22:20;101061.09;;;11.99;76.40
19811;BME280;10065;49.632;8.346;2023-02-19T02:28:13;101052.88;;;12.02;76.25
19811;BME280;10065;49.632;8.346;2023-02-19T02:30:46;101043.91;;;12.03;75.98
19811;BME280;10065;49.632;8.346;2023-02-19T02:33:22;101034.38;;;12.10;75.75
19811;BME280;10065;49.632;8.346;2023-02-19T02:35:55;101022.63;;;12.13;75.64
19811;BME280;10065;49.632;8.346;2023-02-19T02:38:27;101016.75;;;12.09;75.89
19811;BME280;10065;49.632;8.346;2023-02-19T02:40:55;101015.06;;;12.08;75.92
19811;BME280;10065;49.632;8.346;2023-02-19T02:43:24;101028.50;;;12.06;76.01
19811;BME280;10065;49.632;8.346;2023-02-19T02:45:53;101028.34;;;12.08;75.94
19811;BME280;10065;49.632;8.346;2023-02-19T02:48:32;101020.81;;;12.03;76.20
19811;BME280;10065;49.632;8.346;2023-02-19T02:51:07;101016.38;;;11.94;76.73
19811;BME280;10065;49.632;8.346;2023-02-19T02:53:40;101034.13;;;11.94;76.98
19811;BME280;10065;49.632;8.346;2023-02-19T02:56:27;101040.28;;;11.94;77.07
19811;BME280;10065;49.632;8.346;2023-02-19T02:58:57;101018.72;;;11.97;76.73
19811;BME280;10065;49.632;8.346;2023-02-19T03:01:30;101002.50;;;12.00;76.64
19811;BME280;10065;49.632;8.346;2023-02-19T03:04:23;101016.22;;;11.96;76.92
19811;BME280;10065;49.632;8.346;2023-02-19T03:06:52;101015.22;;;11.97;76.97
19811;BME280;10065;49.632;8.346;2023-02-19T03:09:25;101012.75;;;11.95;76.88
19811;BME280;10065;49.632;8.346;2023-02-19T03:12:01;101017.88;;;11.97;77.08
19811;BME280;10065;49.632;8.346;2023-02-19T03:14:50;101016.22;;;11.96;76.84
19811;BME280;10065;49.632;8.346;2023-02-19T03:17:41;101013.97;;;12.01;76.52
19811;BME280;10065;49.632;8.346;2023-02-19T03:20:28;101019.31;;;11.91;76.96
19811;BME280;10065;49.632;8.346;2023-02-19T03:22:58;101011.72;;;11.96;76.45
19811;BME280;10065;49.632;8.346;2023-02-19T03:25:29;101003.09;;;11.85;77.24
19811;BME280;10065;49.632;8.346;2023-02-19T03:28:23;100997.22;;;11.91;77.18
19811;BME280;10065;49.632;8.346;2023-02-19T03:31:17;100999.44;;;11.95;76.65
19811;BME280;10065;49.632;8.346;2023-02-19T03:33:50;101020.41;;;11.98;76.63
19811;BME280;10065;49.632;8.346;2023-02-19T03:36:21;101011.31;;;12.01;76.36
19811;BME280;10065;49.632;8.346;2023-02-19T03:38:56;101006.97;;;12.00;76.54
19811;BME280;10065;49.632;8.346;2023-02-19T03:41:29;101010.03;;;12.05;76.03
19811;BME280;10065;49.632;8.346;2023-02-19T03:44:08;101005.13;;;12.10;75.71
19811;BME280;10065;49.632;8.346;2023-02-19T03:46:42;101003.31;;;12.11;75.91
19811;BME280;10065;49.632;8.346;2023-02-19T03:49:17;100997.53;;;12.15;75.16
19811;BME280;10065;49.632;8.346;2023-02-19T03:51:53;100998.28;;;12.07;75.63
19811;BME280;10065;49.632;8.346;2023-02-19T03:54:31;101007.25;;;11.97;76.29
19811;BME280;10065;49.632;8.346;2023-02-19T03:57:03;101010.91;;;11.96;76.22
19811;BME280;10065;49.632;8.346;2023-02-19T03:59:37;101016.34;;;12.04;76.20
19811;BME280;10065;49.632;8.346;2023-02-19T04:02:10;101031.28;;;12.05;76.06
19811;BME280;10065;49.632;8.346;2023-02-19T04:04:44;101027.81;;;12.04;76.30
19811;BME280;10065;49.632;8.346;2023-02-19T04:07:12;101041.91;;;12.05;76.77
19811;BME280;10065;49.632;8.346;2023-02-19T04:09:42;101038.28;;;12.06;76.57
19811;BME280;10065;49.632;8.346;2023-02-19T04:12:12;101031.72;;;12.10;76.30
19811;BME280;10065;49.632;8.346;2023-02-19T04:14:45;101028.78;;;12.13;76.13
19811;BME280;10065;49.632;8.346;2023-02-19T04:17:18;101026.78;;;12.15;75.48
19811;BME280;10065;49.632;8.346;2023-02-19T04:19:48;101034.38;;;12.10;75.25
19811;BME280;10065;49.632;8.346;2023-02-19T04:22:18;101028.06;;;12.11;75.41
19811;BME280;10065;49.632;8.346;2023-02-19T04:24:49;101051.56;;;12.06;75.86
19811;BME280;10065;49.632;8.346;2023-02-19T04:27:18;101029.63;;;12.04;76.25
19811;BME280;10065;49.632;8.346;2023-02-19T04:29:46;101019.25;;;12.11;76.01
19811;BME280;10065;49.632;8.346;2023-02-19T04:32:16;101017.44;;;12.11;76.08
19811;BME280;10065;49.632;8.346;2023-02-19T04:34:44;101016.75;;;12.09;76.45
19811;BME280;10065;49.632;8.346;2023-02-19T04:37:13;101015.19;;;12.06;76.69
19811;BME280;10065;49.632;8.346;2023-02-19T04:39:41;101018.16;;;12.03;77.07
19811;BME280;10065;49.632;8.346;2023-02-19T04:42:09;101029.63;;;12.04;76.93
19811;BME280;10065;49.632;8.346;2023-02-19T04:44:37;101025.56;;;12.00;77.18
19811;BME280;10065;49.632;8.346;2023-02-19T04:47:04;101038.03;;;11.90;78.18
19811;BME280;10065;49.632;8.346;2023-02-19T04:49:32;101041.16;;;11.85;79.38
19811;BME280;10065;49.632;8.346;2023-02-19T04:52:00;101051.63;;;11.87;79.96
19811;BME280;10065;49.632;8.346;2023-02-19T04:54:29;101050.78;;;11.86;79.96
19811;BME280;10065;49.632;8.346;2023-02-19T04:56:57;101052.31;;;11.89;79.49
19811;BME280;10065;49.632;8.346;2023-02-19T04:59:25;101040.44;;;11.93;79.08
19811;BME280;10065;49.632;8.346;2023-02-19T05:01:52;101046.72;;;11.92;79.23
19811;BME280;10065;49.632;8.346;2023-02-19T05:04:20;101048.69;;;11.90;78.99
19811;BME280;10065;49.632;8.346;2023-02-19T05:06:49;101043.34;;;11.90;78.84
19811;BME280;10065;49.632;8.346;2023-02-19T05:09:17;101053.47;;;11.86;79.12
19811;BME280;10065;49.632;8.346;2023-02-19T05:11:46;101059.31;;;11.90;79.04
19811;BME280;10065;49.632;8.346;2023-02-19T05:14:14;101064.94;;;11.87;79.37
19811;BME280;10065;49.632;8.346;2023-02-19T05:16:45;101073.88;;;11.86;79.78
19811;BME280;10065;49.632;8.346;2023-02-19T05:19:12;101074.84;;;11.94;79.68
19811;BME280;10065;49.632;8.346;2023-02-19T05:21:40;101076.09;;;11.90;80.06
19811;BME280;10065;49.632;8.346;2023-02-19T05:24:08;101077.06;;;11.89;80.66
19811;BME280;10065;49.632;8.346;2023-02-19T05:26:36;101084.78;;;11.92;80.71
19811;BME280;10065;49.632;8.346;2023-02-19T05:29:05;101089.50;;;11.89;81.99
19811;BME280;10065;49.632;8.346;2023-02-19T05:31:32;101096.81;;;11.87;82.90
19811;BME280;10065;49.632;8.346;2023-02-19T05:34:00;101086.19;;;11.87;83.80
19811;BME280;10065;49.632;8.346;2023-02-19T05:36:29;101074.53;;;11.88;84.08
19811;BME280;10065;49.632;8.346;2023-02-19T05:38:57;101069.09;;;11.80;84.97
19811;BME280;10065;49.632;8.346;2023-02-19T05:41:26;101069.91;;;11.70;85.57
19811;BME280;10065;49.632;8.346;2023-02-19T05:43:54;101073.84;;;11.66;86.05
19811;BME280;10065;49.632;8.346;2023-02-19T05:46:26;101072.44;;;11.62;86.91
19811;BME280;10065;49.632;8.346;2023-02-19T05:48:55;101080.00;;;11.57;87.24
19811;BME280;10065;49.632;8.346;2023-02-19T05:51:24;101076.63;;;11.55;87.06
19811;BME280;10065;49.632;8.346;2023-02-19T05:53:52;101074.69;;;11.57;86.83
19811;BME280;10065;49.632;8.346;2023-02-19T05:56:26;101080.28;;;11.54;87.00
19811;BME280;10065;49.632;8.346;2023-02-19T05:58:54;101080.72;;;11.59;86.40
19811;BME280;10065;49.632;8.346;2023-02-19T06:01:25;101086.69;;;11.61;85.92
19811;BME280;10065;49.632;8.346;2023-02-19T06:03:54;101104.88;;;11.56;86.05
19811;BME280;10065;49.632;8.346;2023-02-19T06:06:23;101113.25;;;11.61;85.62
19811;BME280;10065;49.632;8.346;2023-02-19T06:08:51;101108.38;;;11.66;85.16
19811;BME280;10065;49.632;8.346;2023-02-19T06:11:20;101100.69;;;11.63;84.84
19811;BME280;10065;49.632;8.346;2023-02-19T06:13:47;101113.84;;;11.65;84.61
19811;BME280;10065;49.632;8.346;2023-02-19T06:16:16;101119.72;;;11.68;84.39
19811;BME280;10065;49.632;8.346;2023-02-19T06:18:47;101105.47;;;11.69;84.25
19811;BME280;10065;49.632;8.346;2023-02-19T06:21:16;101108.66;;;11.73;83.93
19811;BME280;10065;49.632;8.346;2023-02-19T06:23:44;101109.38;;;11.65;83.87
19811;BME280;10065;49.632;8.346;2023-02-19T06:26:14;101119.00;;;11.66;83.53
19811;BME280;10065;49.632;8.346;2023-02-19T06:28:44;101124.88;;;11.70;82.91
19811;BME280;10065;49.632;8.346;2023-02-19T06:31:12;101131.03;;;11.70;82.86
19811;BME280;10065;49.632;8.346;2023-02-19T06:33:40;101132.47;;;11.75;82.51
19811;BME280;10065;49.632;8.346;2023-02-19T06:36:13;101129.81;;;11.75;82.30
19811;BME280;10065;49.632;8.346;2023-02-19T06:38:41;101131.19;;;11.79;81.82
19811;BME280;10065;49.632;8.346;2023-02-19T06:41:09;101139.03;;;11.80;81.37
19811;BME280;10065;49.632;8.346;2023-02-19T06:43:38;101143.69;;;11.78;80.84
19811;BME280;10065;49.632;8.346;2023-02-19T06:46:07;101147.44;;;11.76;80.85
19811;BME280;10065;49.632;8.346;2023-02-19T06:48:34;101146.34;;;11.78;80.37
19811;BME280;10065;49.632;8.346;2023-02-19T06:51:02;101154.56;;;11.75;79.77
19811;BME280;10065;49.632;8.346;2023-02-19T06:53:31;101160.44;;;11.79;79.54
19811;BME280;10065;49.632;8.346;2023-02-19T06:56:01;101175.41;;;11.80;79.86
19811;BME280;10065;49.632;8.346;2023-02-19T06:58:30;101167.28;;;11.81;79.36
19811;BME280;10065;49.632;8.346;2023-02-19T07:00:58;101165.06;;;11.86;78.80
19811;BME280;10065;49.632;8.346;2023-02-19T07:03:26;101176.53;;;11.87;78.70
19811;BME280;10065;49.632;8.346;2023-02-19T07:05:53;101180.31;;;11.84;78.34
19811;BME280;10065;49.632;8.346;2023-02-19T07:08:21;101177.38;;;11.87;78.08
19811;BME280;10065;49.632;8.346;2023-02-19T07:10:59;101178.78;;;11.91;77.68
19811;BME280;10065;49.632;8.346;2023-02-19T07:13:27;101185.50;;;11.95;77.25
19811;BME280;10065;49.632;8.346;2023-02-19T07:15:58;101188.44;;;12.02;76.60
19811;BME280;10065;49.632;8.346;2023-02-19T07:18:26;101189.66;;;11.98;76.38
19811;BME280;10065;49.632;8.346;2023-02-19T07:20:54;101186.16;;;11.97;76.40
19811;BME280;10065;49.632;8.346;2023-02-19T07:23:22;101175.41;;;11.99;75.95
19811;BME280;10065;49.632;8.346;2023-02-19T07:25:49;101175.97;;;12.02;75.84
19811;BME280;10065;49.632;8.346;2023-02-19T07:28:18;101169.38;;;12.06;75.44
19811;BME280;10065;49.632;8.346;2023-02-19T07:30:46;101169.81;;;12.12;75.22
19811;BME280;10065;49.632;8.346;2023-02-19T07:33:14;101177.66;;;12.13;74.38
19811;BME280;10065;49.632;8.346;2023-02-19T07:35:44;101186.63;;;12.12;74.71
19811;BME280;10065;49.632;8.346;2023-02-19T07:38:14;101197.91;;;12.14;74.79
19811;BME280;10065;49.632;8.346;2023-02-19T07:40:49;101206.91;;;12.13;74.80
19811;BME280;10065;49.632;8.346;2023-02-19T07:43:19;101206.34;;;12.19;74.56
19811;BME280;10065;49.632;8.346;2023-02-19T07:45:47;101206.06;;;12.22;74.19
19811;BME280;10065;49.632;8.346;2023-02-19T07:48:14;101208.56;;;12.24;74.44
19811;BME280;10065;49.632;8.346;2023-02-19T07:50:49;101214.72;;;12.24;74.71
19811;BME280;10065;49.632;8.346;2023-02-19T07:53:17;101228.31;;;12.21;74.86
19811;BME280;10065;49.632;8.346;2023-02-19T07:55:45;101224.50;;;12.14;74.63
19811;BME280;10065;49.632;8.346;2023-02-19T07:58:13;101225.50;;;12.13;75.06
19811;BME280;10065;49.632;8.346;2023-02-19T08:00:42;101219.75;;;12.08;75.20
19811;BME280;10065;49.632;8.346;2023-02-19T08:03:10;101226.06;;;12.17;75.13
19811;BME280;10065;49.632;8.346;2023-02-19T08:05:39;101236.28;;;12.21;74.66
19811;BME280;10065;49.632;8.346;2023-02-19T08:08:08;101234.44;;;12.31;74.90
19811;BME280;10065;49.632;8.346;2023-02-19T08:10:36;101231.78;;;12.31;74.48
19811;BME280;10065;49.632;8.346;2023-02-19T08:13:21;101237.25;;;12.39;74.35
19811;BME280;10065;49.632;8.346;2023-02-19T08:15:53;101246.34;;;12.47;73.95
19811;BME280;10065;49.632;8.346;2023-02-19T08:18:33;101259.22;;;12.51;73.45
19811;BME280;10065;49.632;8.346;2023-02-19T08:21:01;101254.31;;;12.56;72.98
19811;BME280;10065;49.632;8.346;2023-02-19T08:23:28;101261.88;;;12.61;72.97
19811;BME280;10065;49.632;8.346;2023-02-19T08:25:57;101261.28;;;12.67;72.40
19811;BME280;10065;49.632;8.346;2023-02-19T08:28:25;101268.41;;;12.76;71.96
19811;BME280;10065;49.632;8.346;2023-02-19T08:31:00;101267.31;;;12.78;71.86
19811;BME280;10065;49.632;8.346;2023-02-19T08:33:28;101274.56;;;12.86;71.64
19811;BME280;10065;49.632;8.346;2023-02-19T08:36:00;101276.09;;;12.89;71.10
19811;BME280;10065;49.632;8.346;2023-02-19T08:38:30;101269.34;;;13.04;70.47
19811;BME280;10065;49.632;8.346;2023-02-19T08:40:58;101277.06;;;13.16;70.08
19811;BME280;10065;49.632;8.346;2023-02-19T08:43:26;101286.25;;;13.32;69.01
19811;BME280;10065;49.632;8.346;2023-02-19T08:45:55;101291.25;;;13.44;68.26
19811;BME280;10065;49.632;8.346;2023-02-19T08:48:22;101284.31;;;13.61;67.40
19811;BME280;10065;49.632;8.346;2023-02-19T08:50:54;101293.75;;;13.73;66.84
19811;BME280;10065;49.632;8.346;2023-02-19T08:53:22;101299.63;;;13.77;66.37
19811;BME280;10065;49.632;8.346;2023-02-19T08:55:51;101304.69;;;13.80;66.32
19811;BME280;10065;49.632;8.346;2023-02-19T08:58:19;101307.78;;;13.75;66.44
19811;BME280;10065;49.632;8.346;2023-02-19T09:00:47;101325.78;;;13.64;66.44
19811;BME280;10065;49.632;8.346;2023-02-19T09:03:16;101326.00;;;13.52;66.89
19811;BME280;10065;49.632;8.346;2023-02-19T09:05:44;101329.13;;;13.38;67.60
19811;BME280;10065;49.632;8.346;2023-02-19T09:08:12;101331.69;;;13.21;68.54
19811;BME280;10065;49.632;8.346;2023-02-19T09:10:39;101328.22;;;13.10;69.27
19811;BME280;10065;49.632;8.346;2023-02-19T09:13:07;101329.84;;;13.11;69.50
19811;BME280;10065;49.632;8.346;2023-02-19T09:15:36;101321.59;;;13.24;69.63
19811;BME280;10065;49.632;8.346;2023-02-19T09:18:04;101316.13;;;13.26;69.04
19811;BME280;10065;49.632;8.346;2023-02-19T09:20:33;101318.31;;;13.40;68.57
19811;BME280;10065;49.632;8.346;2023-02-19T09:23:01;101317.44;;;13.49;68.37
19811;BME280;10065;49.632;8.346;2023-02-19T09:25:28;101308.00;;;13.54;67.74
19811;BME280;10065;49.632;8.346;2023-02-19T09:27:56;101312.53;;;13.54;67.40
19811;BME280;10065;49.632;8.346;2023-02-19T09:30:24;101311.28;;;13.48;67.55
19811;BME280;10065;49.632;8.346;2023-02-19T09:32:53;101329.50;;;13.53;67.45
19811;BME280;10065;49.632;8.346;2023-02-19T09:35:22;101336.91;;;13.59;67.55
19811;BME280;10065;49.632;8.346;2023-02-19T09:37:51;101341.25;;;13.60;67.79
19811;BME280;10065;49.632;8.346;2023-02-19T09:40:19;101342.72;;;13.72;66.77
19811;BME280;10065;49.632;8.346;2023-02-19T09:42:49;101333.84;;;13.81;66.68
19811;BME280;10065;49.632;8.346;2023-02-19T09:45:21;101338.59;;;13.87;65.97
19811;BME280;10065;49.632;8.346;2023-02-19T09:47:52;101338.88;;;13.84;66.00
19811;BME280;10065;49.632;8.346;2023-02-19T09:50:26;101345.91;;;13.85;66.04
19811;BME280;10065;49.632;8.346;2023-02-19T09:53:02;101332.09;;;13.90;66.06
19811;BME280;10065;49.632;8.346;2023-02-19T09:55:33;101349.84;;;13.81;66.25
19811;BME280;10065;49.632;8.346;2023-02-19T09:58:07;101340.75;;;13.74;66.34
19811;BME280;10065;49.632;8.346;2023-02-19T10:00:41;101347.91;;;13.74;66.13
19811;BME280;10065;49.632;8.346;2023-02-19T10:03:11;101363.88;;;13.83;65.55
19811;BME280;10065;49.632;8.346;2023-02-19T10:05:41;101366.16;;;13.78;66.16
19811;BME280;10065;49.632;8.346;2023-02-19T10:08:14;101351.00;;;13.79;66.43
19811;BME280;10065;49.632;8.346;2023-02-19T10:10:44;101351.72;;;13.99;65.94
19811;BME280;10065;49.632;8.346;2023-02-19T10:13:17;101350.41;;;14.30;65.16
19811;BME280;10065;49.632;8.346;2023-02-19T10:15:47;101343.88;;;15.73;61.32
19811;BME280;10065;49.632;8.346;2023-02-19T10:18:21;101346.47;;;19.74;49.59
19811;BME280;10065;49.632;8.346;2023-02-19T10:20:51;101336.63;;;20.96;45.21
19811;BME280;10065;49.632;8.346;2023-02-19T10:23:20;101338.69;;;22.45;41.84
19811;BME280;10065;49.632;8.346;2023-02-19T10:25:52;101347.47;;;23.52;39.01
19811;BME280;10065;49.632;8.346;2023-02-19T10:28:24;101351.03;;;22.87;38.71
19811;BME280;10065;49.632;8.346;2023-02-19T10:30:55;101347.56;;;21.71;41.34
19811;BME280;10065;49.632;8.346;2023-02-19T10:33:23;101349.97;;;21.04;43.00
19811;BME280;10065;49.632;8.346;2023-02-19T10:35:57;101347.50;;;20.39;44.27
19811;BME280;10065;49.632;8.346;2023-02-19T10:38:29;101349.53;;;19.71;45.32
19811;BME280;10065;49.632;8.346;2023-02-19T10:41:03;101369.31;;;19.11;47.03
19811;BME280;10065;49.632;8.346;2023-02-19T10:43:34;101353.56;;;18.86;46.91
19811;BME280;10065;49.632;8.346;2023-02-19T10:46:06;101357.97;;;19.01;46.68
19811;BME280;10065;49.632;8.346;2023-02-19T10:48:37;101351.97;;;18.99;46.84
19811;BME280;10065;49.632;8.346;2023-02-19T10:51:08;101353.81;;;18.76;46.94
19811;BME280;10065;49.632;8.346;2023-02-19T10:53:41;101355.78;;;19.20;46.46
19811;BME280;10065;49.632;8.346;2023-02-19T10:56:13;101358.38;;;19.65;45.55
19811;BME280;10065;49.632;8.346;2023-02-19T10:58:42;101367.22;;;19.36;45.10
19811;BME280;10065;49.632;8.346;2023-02-19T11:01:17;101364.09;;;18.72;46.60
19811;BME280;10065;49.632;8.346;2023-02-19T11:03:47;101374.78;;;18.27;48.29
19811;BME280;10065;49.632;8.346;2023-02-19T11:06:16;101397.00;;;17.65;48.41
19811;BME280;10065;49.632;8.346;2023-02-19T11:08:54;101390.00;;;17.00;50.12
19811;BME280;10065;49.632;8.346;2023-02-19T11:11:26;101399.41;;;16.79;51.65
19811;BME280;10065;49.632;8.346;2023-02-19T11:13:55;101399.66;;;16.52;52.32
19811;BME280;10065;49.632;8.346;2023-02-19T11:16:37;101406.25;;;16.24;53.23
19811;BME280;10065;49.632;8.346;2023-02-19T11:19:15;101394.16;;;16.11;53.22
19811;BME280;10065;49.632;8.346;2023-02-19T11:21:47;101401.94;;;15.89;53.99
19811;BME280;10065;49.632;8.346;2023-02-19T11:24:22;101403.34;;;15.75;55.50
19811;BME280;10065;49.632;8.346;2023-02-19T11:26:51;101396.06;;;15.85;55.99
19811;BME280;10065;49.632;8.346;2023-02-19T11:29:20;101397.50;;;16.05;54.68
19811;BME280;10065;49.632;8.346;2023-02-19T11:31:50;101405.03;;;16.60;53.62
19811;BME280;10065;49.632;8.346;2023-02-19T11:34:26;101386.50;;;17.23;52.05
19811;BME280;10065;49.632;8.346;2023-02-19T11:37:10;101393.94;;;17.60;50.61
19811;BME280;10065;49.632;8.346;2023-02-19T11:39:41;101390.44;;;17.52;50.04
19811;BME280;10065;49.632;8.346;2023-02-19T11:42:23;101390.69;;;17.10;49.76
19811;BME280;10065;49.632;8.346;2023-02-19T11:45:08;101406.53;;;16.63;50.58
19811;BME280;10065;49.632;8.346;2023-02-19T11:50:50;101417.13;;;16.22;50.47
19811;BME280;10065;49.632;8.346;2023-02-19T11:53:24;101411.41;;;16.09;51.63
19811;BME280;10065;49.632;8.346;2023-02-19T11:56:05;101417.03;;;16.48;51.66
19811;BME280;10065;49.632;8.346;2023-02-19T11:58:49;101412.44;;;16.90;49.47
19811;BME280;10065;49.632;8.346;2023-02-19T12:01:22;101416.47;;;16.86;48.88
19811;BME280;10065;49.632;8.346;2023-02-19T12:04:12;101420.88;;;16.53;49.87
19811;BME280;10065;49.632;8.346;2023-02-19T12:06:53;101427.16;;;16.28;51.26
19811;BME280;10065;49.632;8.346;2023-02-19T12:09:44;101424.16;;;16.23;52.36
19811;BME280;10065;49.632;8.346;2023-02-19T12:12:29;101424.28;;;16.13;52.98
19811;BME280;10065;49.632;8.346;2023-02-19T12:15:15;101423.63;;;16.19;53.65
19811;BME280;10065;49.632;8.346;2023-02-19T12:18:05;101427.06;;;16.04;53.86
19811;BME280;10065;49.632;8.346;2023-02-19T12:20:42;101425.16;;;15.88;54.28
19811;BME280;10065;49.632;8.346;2023-02-19T12:23:51;101422.25;;;15.73;54.03
19811;BME280;10065;49.632;8.346;2023-02-19T12:26:26;101409.38;;;15.77;53.89
19811;BME280;10065;49.632;8.346;2023-02-19T12:29:11;101407.41;;;15.79;54.37
19811;BME280;10065;49.632;8.346;2023-02-19T12:35:15;101394.09;;;15.95;51.99
19811;BME280;10065;49.632;8.346;2023-02-19T12:37:52;101391.63;;;16.52;49.85
19811;BME280;10065;49.632;8.346;2023-02-19T12:40:32;101388.25;;;16.50;50.23
19811;BME280;10065;49.632;8.346;2023-02-19T12:43:12;101395.59;;;16.40;50.00
19811;BME280;10065;49.632;8.346;2023-02-19T12:45:46;101395.56;;;16.32;50.47
19811;BME280;10065;49.632;8.346;2023-02-19T12:48:24;101397.94;;;16.35;51.11
19811;BME280;10065;49.632;8.346;2023-02-19T12:50:56;101390.25;;;16.40;51.33
19811;BME280;10065;49.632;8.346;2023-02-19T12:53:39;101404.81;;;16.53;52.17
19811;BME280;10065;49.632;8.346;2023-02-19T12:56:13;101409.91;;;16.65;51.03
19811;BME280;10065;49.632;8.346;2023-02-19T12:58:46;101396.50;;;16.65;49.74
19811;BME280;10065;49.632;8.346;2023-02-19T13:01:19;101396.03;;;16.93;49.19
19811;BME280;10065;49.632;8.346;2023-02-19T13:03:50;101394.88;;;17.20;48.31
19811;BME280;10065;49.632;8.346;2023-02-19T13:06:29;101386.00;;;17.04;47.84
19811;BME280;10065;49.632;8.346;2023-02-19T13:09:02;101382.13;;;16.74;48.98
19811;BME280;10065;49.632;8.346;2023-02-19T13:11:36;101393.78;;;16.48;49.10
19811;BME280;10065;49.632;8.346;2023-02-19T13:14:13;101391.91;;;16.33;49.61
19811;BME280;10065;49.632;8.346;2023-02-19T13:16:47;101392.91;;;16.32;49.50
19811;BME280;10065;49.632;8.346;2023-02-19T13:19:16;101387.22;;;16.27;50.00
19811;BME280;10065;49.632;8.346;2023-02-19T13:21:45;101387.66;;;16.14;50.50
19811;BME280;10065;49.632;8.346;2023-02-19T13:24:42;101382.91;;;15.92;50.64